• Join FlightAware (Why Join?)
  • Login
  • US Flag 
07:57PM EDT


 

Airport Tracker/Info


-or-


 

Live Flight TrackerFlight Track Log ✈ EJA396 ✈ 30-Jul-2013 ✈ KSJC - KHHR

Flight Track Log - Related Links

Times and Time Zones

All times are in EDT time to prevent confusion due to time zone crossing. See the EJA396 flight status page for this flight to view local times or setup timezone preferences in your user account.

Time Position Orientation Groundspeed Altitude Reporting Facility
EDT Latitude Longitude Course Direction KTS MPH feet Rate Location/Type
02:37PM 37.3833 -121.9500 139° Southeast 172 198 1,900  Level Northern Cal TRACON
02:38PM 37.4333 -121.9833 332° Northwest 243 280 5,100 1,200 Climbing Northern Cal TRACON
02:41PM 37.3792 -121.8444 116° Southeast 234 269 6,100 720 Climbing Oakland Center
02:42PM 37.3342 -121.7928 138° Southeast 219 252 7,700 2,520 Climbing Oakland Center
02:43PM 37.0177 -121.5490 139° Southeast  Level Estimated
02:43PM 37.2811 -121.7369 140° Southeast 239 275 11,300  Level Oakland Center
02:44PM 37.2072 -121.6500 137° Southeast 295 339 15,300 3,360 Climbing Oakland Center
02:45PM 37.1411 -121.5747 138° Southeast 319 367 18,300 2,700 Climbing Oakland Center
02:46PM 37.0792 -121.5083 139° Southeast 326 375 20,900 2,760 Climbing Oakland Center
02:47PM 37.0003 -121.4214 139° Southeast 339 390 24,000 2,820 Climbing Oakland Center
02:48PM 36.9258 -121.3392 139° Southeast 355 409 26,700 2,520 Climbing Oakland Center
02:49PM 36.8500 -121.2572 139° Southeast 360 414 29,200 2,040 Climbing Oakland Center
02:50PM 36.7636 -121.1675 140° Southeast 369 425 31,000 840 Climbing Oakland Center
02:51PM 36.6761 -121.0711 139° Southeast 416 479 31,000  Level Oakland Center
02:52PM 36.5803 -120.9689 139° Southeast 448 516 31,000  Level Oakland Center
02:53PM 36.4828 -120.8644 139° Southeast 460 529 31,000  Level Oakland Center
02:54PM 36.3847 -120.7603 139° Southeast 462 532 31,000  Level Oakland Center
02:55PM 36.2875 -120.6556 139° Southeast 464 534 31,000  Level Oakland Center
02:56PM 36.1900 -120.5533 140° Southeast 461 531 31,000  Level Oakland Center
02:57PM 36.0731 -120.4272 139° Southeast 462 532 31,000  Level Oakland Center
02:58PM 35.9761 -120.3242 139° Southeast 460 529 31,000  Level Oakland Center
02:59PM 35.8789 -120.2214 139° Southeast 459 528 31,000  Level Oakland Center
03:00PM 35.7800 -120.1186 140° Southeast 460 529 31,000  Level Oakland Center
03:01PM 35.6819 -120.0150 139° Southeast 462 532 31,000  Level Oakland Center
03:02PM 35.5800 -119.9181 142° Southeast 461 531 31,000  Level Oakland Center
03:03PM 35.4733 -119.8292 146° Southeast 460 529 31,000  Level Oakland Center
03:04PM 35.3689 -119.7375 144° Southeast 458 527 31,000  Level Oakland Center
03:05PM 35.2628 -119.6472 145° Southeast 460 529 31,000 -240 Level Oakland Center
03:06PM 35.1567 -119.5564 145° Southeast 462 532 30,600 -1,440 Descending Oakland Center
03:07PM 35.0533 -119.4686 145° Southeast 456 525 28,100 -2,520 Descending Oakland Center
03:08PM 34.9522 -119.3822 145° Southeast 449 517 25,500 -2,460 Descending Oakland Center
03:09PM 34.8411 -119.2881 145° Southeast 416 479 23,200 -1,920 Descending Oakland Center
03:10PM 34.7517 -119.2125 145° Southeast 397 457 21,600 -1,620 Descending Oakland Center
03:11PM 34.7169 -119.1828 145° Southeast 390 449 20,800 -1,680 Descending Los Angeles Center
03:12PM 34.6211 -119.1033 146° Southeast 395 455 19,100 -1,620 Descending Los Angeles Center
03:13PM 34.5325 -119.0294 146° Southeast 384 442 17,500 -1,560 Descending Los Angeles Center
03:14PM 34.4489 -118.9586 145° Southeast 365 420 15,900 -1,740 Descending Los Angeles Center
03:15PM 34.3528 -118.8806 146° Southeast 346 398 14,000 -1,920 Descending Los Angeles Center
03:16PM 34.2644 -118.8483 163° South 330 380 12,000 -960 Descending Los Angeles Center
03:17PM 34.1772 -118.8194 165° South 326 375 12,000 -540 Level Los Angeles Center
03:18PM 34.0939 -118.7908 164° South 311 358 11,000 -1,020 Descending Los Angeles Center
03:19PM 34.0619 -118.6983 113° Southeast 280 322 10,000 -720 Descending Los Angeles Center
03:20PM 34.0414 -118.6025 104° East 275 316 9,600 -1,140 Descending Los Angeles Center
03:21PM 34.0228 -118.5156 104° East 268 308 7,700 -1,800 Descending Los Angeles Center
03:22PM 34.0000 -118.4303 108° East 259 298 6,000 -1,320 Descending Los Angeles Center
03:23PM 33.9669 -118.3725 125° Southeast 231 266 5,000 -540 Descending Los Angeles Center
03:24PM 33.9428 -118.3197 119° Southeast 200 230 5,000 -540 Level Los Angeles Center
03:25PM 33.9167 -118.2664 121° Southeast 188 216 4,000 -1,500 Descending Los Angeles Center
03:26PM 33.8889 -118.2125 122° Southeast 187 215 1,900 -1,200 Descending Los Angeles Center
03:27PM 33.9081 -118.1792 55° Northeast 178 205 1,600 -240 Descending Los Angeles Center
03:28PM 33.9256 -118.2239 295° West 156 180 1,500 -360 Descending Los Angeles Center
03:30PM 33.9267 -118.2753 272° West 137 158 900 -540 Descending Los Angeles Center
03:31PM 33.9242 -118.3158 266° West 129 148 400 -420 Descending Los Angeles Center
03:32PM 33.9231 -118.3406 267° West 86 99 100 -180 Descending Los Angeles Center
03:33PM 33.9228 -118.3336 93° East 74 85 100  Level Los Angeles Center